createdAt,value
2022-10-22T05:32:32.898Z,96.45
2022-10-22T05:34:59.434Z,96.32
2022-10-22T05:37:25.907Z,96.16
2022-10-22T05:40:19.074Z,95.84
2022-10-22T05:42:53.067Z,95.68
2022-10-22T05:45:19.586Z,95.52
2022-10-22T05:47:46.096Z,95.52
2022-10-22T05:50:12.643Z,95.25
2022-10-22T05:52:42.195Z,95.03
2022-10-22T05:55:09.047Z,94.96
2022-10-22T05:57:35.568Z,94.97
2022-10-22T06:00:02.067Z,94.99
2022-10-22T06:02:28.625Z,95.19
2022-10-22T06:04:55.185Z,95.08
2022-10-22T06:07:26.032Z,95.33
2022-10-22T06:09:53.833Z,95.34
2022-10-22T06:12:20.360Z,95.12
2022-10-22T06:14:46.880Z,95.35
2022-10-22T06:17:13.479Z,95.41
2022-10-22T06:19:39.988Z,95.52
2022-10-22T06:22:06.695Z,95.52
2022-10-22T06:24:33.350Z,95.55
2022-10-22T06:26:59.904Z,95.30
2022-10-22T06:29:26.454Z,95.21
2022-10-22T06:31:52.982Z,95.42
2022-10-22T06:34:19.648Z,95.18
2022-10-22T06:36:46.887Z,95.10
2022-10-22T06:39:15.238Z,94.96
2022-10-22T06:41:41.977Z,94.74
2022-10-22T06:44:14.700Z,94.83
2022-10-22T06:46:43.399Z,94.55
2022-10-22T06:49:14.220Z,94.12
2022-10-22T06:51:41.055Z,94.04
2022-10-22T06:54:07.829Z,93.90
2022-10-22T06:56:34.631Z,93.40
2022-10-22T06:59:01.199Z,93.32
2022-10-22T07:01:33.376Z,93.21
2022-10-22T07:04:00.367Z,93.31
2022-10-22T07:06:28.419Z,93.16
2022-10-22T07:08:56.819Z,92.58
2022-10-22T07:11:28.930Z,92.71
2022-10-22T07:13:57.090Z,92.30
2022-10-22T07:16:28.026Z,92.14
2022-10-22T07:18:59.000Z,91.88
2022-10-22T07:21:26.198Z,91.95
2022-10-22T07:23:53.010Z,91.73
2022-10-22T07:26:25.153Z,90.42
2022-10-22T07:28:52.130Z,87.59
2022-10-22T07:31:18.912Z,84.70
2022-10-22T07:33:45.564Z,82.83
2022-10-22T07:36:23.294Z,81.32
2022-10-22T07:38:57.670Z,80.27
2022-10-22T07:41:24.391Z,78.47
2022-10-22T07:43:51.074Z,77.70
2022-10-22T07:46:17.602Z,74.93
2022-10-22T07:48:44.145Z,77.06
2022-10-22T07:51:10.768Z,79.67
2022-10-22T07:53:38.037Z,81.32
2022-10-22T07:56:04.736Z,76.95
2022-10-22T07:58:31.716Z,76.94
2022-10-22T08:01:00.939Z,75.17
2022-10-22T08:03:28.344Z,73.41
2022-10-22T08:05:55.938Z,69.77
2022-10-22T08:08:25.841Z,68.07
2022-10-22T08:10:58.549Z,72.15
2022-10-22T08:13:26.332Z,75.69
2022-10-22T08:15:56.552Z,77.57
2022-10-22T08:18:24.525Z,78.98
2022-10-22T08:20:51.596Z,73.48
2022-10-22T08:23:18.222Z,70.39
2022-10-22T08:25:44.819Z,71.89
2022-10-22T08:28:11.245Z,74.09
2022-10-22T08:30:38.688Z,75.53
2022-10-22T08:33:06.165Z,75.51
2022-10-22T08:35:32.793Z,76.80
2022-10-22T08:37:59.270Z,78.10
2022-10-22T08:40:31.990Z,79.35
2022-10-22T08:43:23.526Z,80.05
2022-10-22T08:46:01.881Z,81.39
2022-10-22T08:48:48.435Z,82.07
2022-10-22T08:51:21.411Z,82.67
2022-10-22T08:53:53.555Z,82.82
2022-10-22T08:56:22.520Z,82.61
2022-10-22T08:59:10.789Z,82.69
2022-10-22T09:01:42.010Z,83.10
2022-10-22T09:04:25.683Z,82.59
2022-10-22T09:06:57.543Z,82.29
2022-10-22T09:09:33.147Z,82.85
2022-10-22T09:12:01.350Z,82.98
2022-10-22T09:14:29.918Z,83.64
2022-10-22T09:17:12.076Z,83.71
2022-10-22T09:20:01.682Z,83.76
2022-10-22T09:22:42.578Z,83.72
2022-10-22T09:25:27.903Z,82.90
2022-10-22T09:27:58.513Z,81.63
2022-10-22T09:30:30.502Z,81.37
2022-10-22T09:33:06.383Z,80.88
2022-10-22T09:35:48.740Z,79.77
2022-10-22T09:38:18.584Z,76.46
2022-10-22T09:40:48.748Z,73.28
2022-10-22T09:43:15.983Z,72.35
2022-10-22T09:45:43.458Z,71.30
2022-10-22T09:48:26.461Z,65.63
2022-10-22T09:51:11.481Z,63.77
2022-10-22T09:53:42.181Z,62.67
2022-10-22T09:56:36.193Z,67.62
2022-10-22T09:59:03.457Z,68.89
2022-10-22T10:01:34.546Z,68.97
2022-10-22T10:04:09.646Z,69.55
2022-10-22T10:06:40.183Z,70.42
2022-10-22T10:09:16.671Z,71.00
2022-10-22T10:12:02.134Z,68.26
2022-10-22T10:14:53.676Z,69.45
2022-10-22T10:17:39.273Z,71.33
2022-10-22T10:20:34.395Z,71.28
2022-10-22T10:23:09.214Z,71.40
2022-10-22T10:25:41.940Z,71.03
2022-10-22T10:28:29.740Z,71.13
2022-10-22T10:31:08.096Z,69.76
2022-10-22T10:33:40.341Z,68.94
2022-10-22T10:36:30.149Z,67.10
2022-10-22T10:39:11.246Z,65.39
2022-10-22T10:41:46.587Z,65.71
2022-10-22T10:44:28.195Z,67.77
2022-10-22T10:47:21.639Z,66.43
2022-10-22T10:49:50.450Z,66.98
2022-10-22T10:52:45.181Z,68.36
2022-10-22T10:55:36.389Z,68.43
2022-10-22T10:58:26.301Z,68.56
2022-10-22T11:00:59.822Z,66.53
2022-10-22T11:03:55.553Z,67.24
2022-10-22T11:06:25.575Z,69.27
2022-10-22T11:08:59.430Z,63.40
2022-10-22T11:11:41.267Z,66.30
2022-10-22T11:14:19.667Z,62.32
2022-10-22T11:16:55.353Z,64.33
2022-10-22T11:19:50.644Z,59.67
2022-10-22T11:22:28.517Z,58.11
2022-10-22T11:25:05.766Z,56.60
2022-10-22T11:27:32.250Z,56.50
2022-10-22T11:30:04.984Z,57.55
2022-10-22T11:32:32.617Z,60.14
2022-10-22T11:35:05.468Z,63.41
2022-10-22T11:37:35.253Z,61.59
2022-10-22T11:40:19.209Z,63.27
2022-10-22T11:43:10.203Z,66.06
2022-10-22T11:45:42.259Z,64.75
2022-10-22T11:48:11.758Z,64.40
2022-10-22T11:50:41.295Z,63.93
2022-10-22T11:53:13.734Z,63.05
2022-10-22T11:55:45.610Z,63.92
2022-10-22T11:58:38.301Z,67.51
2022-10-22T12:01:07.587Z,69.11
2022-10-22T12:03:34.696Z,69.67
2022-10-22T12:06:20.737Z,69.11
2022-10-22T12:08:57.090Z,70.30
2022-10-22T12:11:26.502Z,70.15
2022-10-22T12:13:58.752Z,69.26
2022-10-22T12:16:37.871Z,68.90
2022-10-22T12:19:16.263Z,68.33
2022-10-22T12:21:49.050Z,68.91
2022-10-22T12:24:19.129Z,68.55
2022-10-22T12:26:46.986Z,68.22
2022-10-22T12:29:16.246Z,66.96
2022-10-22T12:31:46.067Z,69.09
2022-10-22T12:34:22.030Z,64.85
2022-10-22T12:36:51.591Z,64.68
2022-10-22T12:39:21.112Z,66.63
2022-10-22T12:41:47.654Z,68.70
2022-10-22T12:44:16.747Z,71.17
2022-10-22T12:46:45.396Z,72.15
2022-10-22T12:49:20.097Z,63.23
2022-10-22T12:51:47.569Z,59.30
2022-10-22T12:54:34.555Z,55.97
2022-10-22T12:57:02.468Z,54.76
2022-10-22T12:59:33.527Z,59.85
2022-10-22T13:02:00.546Z,62.17
2022-10-22T13:04:28.290Z,62.16
2022-10-22T13:07:15.950Z,57.41
2022-10-22T13:09:58.240Z,53.61
2022-10-22T13:12:36.133Z,52.61
2022-10-22T13:15:30.206Z,51.87
2022-10-22T13:18:03.934Z,52.35
2022-10-22T13:20:30.802Z,55.27
2022-10-22T13:23:03.363Z,55.07
2022-10-22T13:25:35.433Z,57.21
2022-10-22T13:28:12.390Z,62.16
2022-10-22T13:30:40.047Z,58.72
2022-10-22T13:33:25.039Z,55.10
2022-10-22T13:35:52.019Z,52.82
2022-10-22T13:38:20.818Z,58.62
2022-10-22T13:40:47.985Z,61.61
2022-10-22T13:43:15.134Z,63.55
2022-10-22T13:45:42.120Z,61.36
2022-10-22T13:48:15.062Z,60.88
2022-10-22T13:50:42.311Z,63.36
2022-10-22T13:53:23.209Z,65.06
2022-10-22T13:55:50.333Z,65.27
2022-10-22T13:58:19.870Z,66.02
2022-10-22T14:00:49.922Z,66.44
2022-10-22T14:03:21.495Z,67.16
2022-10-22T14:05:48.832Z,67.70
2022-10-22T14:08:18.336Z,67.95
2022-10-22T14:10:45.161Z,68.16
2022-10-22T14:13:16.253Z,68.78
2022-10-22T14:15:45.071Z,69.23
2022-10-22T14:18:15.517Z,70.05
2022-10-22T14:20:42.791Z,69.59
2022-10-22T14:23:20.052Z,70.25
2022-10-22T14:25:46.931Z,71.04
2022-10-22T14:28:13.754Z,70.65
2022-10-22T14:30:41.048Z,70.33
2022-10-22T14:33:28.976Z,69.84
2022-10-22T14:36:04.702Z,69.95
2022-10-22T14:38:31.205Z,69.45
2022-10-22T14:40:59.609Z,67.84
2022-10-22T14:43:28.647Z,66.04
2022-10-22T14:45:55.475Z,63.62
2022-10-22T14:48:22.037Z,64.83
2022-10-22T14:50:48.900Z,66.89
2022-10-22T14:53:16.845Z,68.11
2022-10-22T14:55:44.665Z,69.31
2022-10-22T14:58:12.386Z,69.77
2022-10-22T15:00:41.893Z,70.84
2022-10-22T15:03:08.598Z,71.03
2022-10-22T15:05:36.576Z,71.36
2022-10-22T15:08:03.370Z,71.99
2022-10-22T15:10:29.929Z,72.59
2022-10-22T15:12:56.460Z,73.22
2022-10-22T15:15:23.820Z,73.36
2022-10-22T15:17:52.116Z,73.78
2022-10-22T15:20:18.672Z,74.09
2022-10-22T15:22:45.415Z,74.24
2022-10-22T15:25:13.763Z,74.22
2022-10-22T15:27:40.326Z,74.43
2022-10-22T15:30:08.161Z,74.82
2022-10-22T15:32:34.738Z,75.00
2022-10-22T15:35:01.672Z,75.35
2022-10-22T15:37:28.249Z,75.70
2022-10-22T15:39:54.797Z,76.42
2022-10-22T15:42:22.308Z,76.78
2022-10-22T15:44:48.793Z,77.21
2022-10-22T15:47:15.512Z,77.70
2022-10-22T15:49:42.039Z,78.27
2022-10-22T15:52:09.219Z,78.60
2022-10-22T15:54:35.920Z,78.55
2022-10-22T15:57:05.813Z,79.42
2022-10-22T15:59:32.381Z,80.10
2022-10-22T16:01:58.924Z,79.48
2022-10-22T16:04:25.433Z,79.95
2022-10-22T16:06:53.518Z,80.80
2022-10-22T16:09:24.940Z,81.94
2022-10-22T16:14:25.095Z,82.42
2022-10-22T16:16:54.266Z,83.08
2022-10-22T16:19:22.631Z,83.69
2022-10-22T16:21:51.593Z,83.94
2022-10-22T16:24:18.734Z,84.03
2022-10-22T16:26:45.652Z,84.57
2022-10-22T16:29:12.676Z,84.92
2022-10-22T16:31:40.418Z,85.60
2022-10-22T16:34:07.822Z,85.85
2022-10-22T16:36:36.216Z,86.13
2022-10-22T16:39:03.952Z,86.41
2022-10-22T16:41:35.162Z,86.81
2022-10-22T16:44:04.264Z,87.26
2022-10-22T16:46:31.856Z,87.84
